createdAt,value
2019-01-14T01:38:10.129Z,81.67
2019-01-14T01:40:51.573Z,82.13
2019-01-14T01:43:32.497Z,81.37
2019-01-14T01:46:13.329Z,80.73
2019-01-14T01:48:54.684Z,81.17
2019-01-14T01:51:36.271Z,77.40
2019-01-14T01:54:17.212Z,80.93
2019-01-14T01:56:58.616Z,80.77
2019-01-14T01:59:39.624Z,83.40
2019-01-14T02:02:21.016Z,88.33
2019-01-14T02:05:02.400Z,87.13
2019-01-14T02:07:43.233Z,87.93
2019-01-14T02:10:24.248Z,89.77
2019-01-14T02:13:05.388Z,89.37
2019-01-14T02:15:46.754Z,88.30
2019-01-14T02:18:27.705Z,87.90
2019-01-14T02:21:08.296Z,88.23
2019-01-14T02:23:49.028Z,88.40
2019-01-14T02:26:30.323Z,84.03
2019-01-14T02:29:11.637Z,84.67
2019-01-14T02:31:52.448Z,86.33
2019-01-14T02:34:33.223Z,83.77
2019-01-14T02:37:13.052Z,82.87
2019-01-14T02:40:01.583Z,84.70
2019-01-14T02:42:42.937Z,87.60
2019-01-14T02:45:24.306Z,83.33
2019-01-14T02:48:05.599Z,84.53
2019-01-14T02:50:47.004Z,82.17
2019-01-14T02:53:28.415Z,66.93
2019-01-14T02:56:09.672Z,76.90
2019-01-14T02:58:50.552Z,75.83
2019-01-14T03:01:31.620Z,70.67
2019-01-14T03:04:12.737Z,73.97
2019-01-14T03:06:57.927Z,75.60
2019-01-14T03:09:37.268Z,74.60
2019-01-14T03:12:18.419Z,73.63
2019-01-14T03:14:59.383Z,76.20
2019-01-14T03:17:40.650Z,80.17
2019-01-14T03:20:22.304Z,77.00
2019-01-14T03:23:03.277Z,78.03
2019-01-14T03:25:44.580Z,78.63
2019-01-14T03:28:25.820Z,78.97
2019-01-14T03:31:07.278Z,76.53
2019-01-14T03:33:48.424Z,83.70
2019-01-14T03:36:29.276Z,73.67
2019-01-14T03:39:10.701Z,78.67
2019-01-14T03:41:52.208Z,81.63
2019-01-14T03:44:32.819Z,80.70
2019-01-14T03:47:13.621Z,83.27
2019-01-14T03:49:54.443Z,76.70
2019-01-14T03:52:35.540Z,83.47
2019-01-14T03:55:16.262Z,76.60
2019-01-14T03:57:57.400Z,82.40
2019-01-14T04:00:38.256Z,81.50
2019-01-14T04:03:19.337Z,80.47
2019-01-14T04:06:00.523Z,76.87
2019-01-14T04:08:41.726Z,76.37
2019-01-14T04:11:23.092Z,78.23
2019-01-14T04:14:04.539Z,75.70
2019-01-14T04:16:45.336Z,82.53
2019-01-14T04:19:25.403Z,79.80
2019-01-14T04:22:13.987Z,74.47
2019-01-14T04:24:54.932Z,85.70
2019-01-14T04:27:36.416Z,69.13
2019-01-14T04:30:17.729Z,41.73
2019-01-14T04:32:59.021Z,81.47
2019-01-14T04:35:40.257Z,74.83
2019-01-14T04:38:21.710Z,77.00
2019-01-14T04:41:03.101Z,73.40
2019-01-14T04:43:44.704Z,75.37
2019-01-14T04:46:25.771Z,77.57
2019-01-14T04:49:06.821Z,76.80
2019-01-14T04:51:46.399Z,77.23
2019-01-14T04:54:34.979Z,76.50
2019-01-14T04:57:16.308Z,73.93
2019-01-14T04:59:56.998Z,74.47
2019-01-14T05:02:38.408Z,79.03
2019-01-14T05:05:19.366Z,74.57
2019-01-14T05:08:00.249Z,66.77
2019-01-14T05:10:39.813Z,73.23
2019-01-14T05:13:20.581Z,78.97
2019-01-14T05:16:00.336Z,67.30
2019-01-14T05:18:41.363Z,69.77
2019-01-14T05:21:22.880Z,72.80
2019-01-14T05:24:03.561Z,67.90
2019-01-14T05:26:45.013Z,54.93
2019-01-14T05:29:26.295Z,70.73
2019-01-14T05:32:07.368Z,70.27
2019-01-14T05:34:48.359Z,69.00
2019-01-14T05:37:37.162Z,66.17
2019-01-14T05:40:12.962Z,62.20
2019-01-14T05:46:01.657Z,45.30
2019-01-14T05:48:43.136Z,54.50
2019-01-14T05:51:22.746Z,58.70
2019-01-14T05:54:11.279Z,55.43
2019-01-14T05:56:51.952Z,54.33
2019-01-14T05:59:32.921Z,56.57
2019-01-14T06:02:14.132Z,57.40
2019-01-14T06:04:54.934Z,53.53
2019-01-14T06:07:36.464Z,56.30
2019-01-14T06:10:17.438Z,52.73
2019-01-14T06:12:59.068Z,53.13
2019-01-14T06:15:39.778Z,55.90
2019-01-14T06:18:20.473Z,51.87
2019-01-14T06:21:01.984Z,54.63
2019-01-14T06:23:43.034Z,50.93
2019-01-14T06:26:24.372Z,53.97
2019-01-14T06:29:05.490Z,52.73
2019-01-14T06:31:46.729Z,52.23
2019-01-14T06:34:27.746Z,47.87
2019-01-14T06:37:09.219Z,51.87
2019-01-14T06:39:49.873Z,52.70
2019-01-14T06:42:30.497Z,51.87
2019-01-14T06:45:11.651Z,48.77
2019-01-14T06:47:52.377Z,50.30
2019-01-14T06:50:33.576Z,47.07
2019-01-14T06:53:14.999Z,49.13
2019-01-14T06:55:56.541Z,48.83
2019-01-14T06:58:37.886Z,43.87
2019-01-14T07:01:18.565Z,49.47
2019-01-14T07:03:59.341Z,50.07
2019-01-14T07:06:40.453Z,43.37
2019-01-14T07:09:21.333Z,43.40
2019-01-14T07:12:02.572Z,46.23
2019-01-14T07:14:44.117Z,47.13
2019-01-14T07:17:25.596Z,48.63
2019-01-14T07:20:06.893Z,44.37
2019-01-14T07:22:48.257Z,47.13
2019-01-14T07:25:29.701Z,45.60
2019-01-14T07:28:10.454Z,46.97
2019-01-14T07:30:51.883Z,49.63
2019-01-14T07:33:33.188Z,42.60
2019-01-14T07:36:12.837Z,38.90
2019-01-14T07:38:54.208Z,44.10
2019-01-14T07:41:35.440Z,42.67
2019-01-14T07:44:16.545Z,42.10
2019-01-14T07:46:57.221Z,43.63
2019-01-14T07:49:38.476Z,38.60
2019-01-14T07:52:19.873Z,42.43
2019-01-14T07:54:59.497Z,38.37
2019-01-14T07:57:47.992Z,34.70
2019-01-14T08:00:29.012Z,44.87
2019-01-14T08:03:08.503Z,42.87
2019-01-14T08:05:49.851Z,33.17
2019-01-14T08:08:31.267Z,39.97
2019-01-14T08:11:12.377Z,42.10
2019-01-14T08:13:51.972Z,42.53
2019-01-14T08:16:33.021Z,42.83
2019-01-14T08:19:14.599Z,43.50
2019-01-14T08:21:55.419Z,43.03
2019-01-14T08:24:36.607Z,39.30
2019-01-14T08:27:18.097Z,40.27
2019-01-14T08:29:58.884Z,33.37
2019-01-14T08:32:40.038Z,30.23
2019-01-14T08:35:21.288Z,44.07
2019-01-14T08:38:02.719Z,42.80
2019-01-14T08:40:43.885Z,44.20
2019-01-14T08:43:26.659Z,41.60
2019-01-14T08:46:06.802Z,43.03
2019-01-14T08:48:48.894Z,43.37
2019-01-14T08:51:30.352Z,43.27
2019-01-14T08:54:11.391Z,28.87
2019-01-14T08:56:53.267Z,34.17
2019-01-14T08:59:34.223Z,43.53
2019-01-14T09:02:15.223Z,44.97
2019-01-14T09:04:54.860Z,43.80
2019-01-14T10:07:20.456Z,60.87
2019-01-14T10:10:00.568Z,57.40
2019-01-14T10:12:40.901Z,56.50
2019-01-14T10:15:19.479Z,57.97
2019-01-14T10:50:17.506Z,62.67
2019-01-14T10:52:57.645Z,60.47
2019-01-14T10:55:36.065Z,59.70
2019-01-14T10:58:14.425Z,60.70
2019-01-14T11:06:55.776Z,58.02
2019-01-14T11:09:44.709Z,63.83
2019-01-14T11:15:25.597Z,61.90
2019-01-14T11:18:07.087Z,62.17
2019-01-14T11:20:48.647Z,64.73
2019-01-14T11:23:29.837Z,64.87
2019-01-14T11:26:11.110Z,60.90
2019-01-14T11:28:52.664Z,62.00
2019-01-14T11:31:33.826Z,63.10
2019-01-14T11:34:15.209Z,62.37
2019-01-14T11:36:56.888Z,68.10
2019-01-14T11:39:37.519Z,67.23
2019-01-14T11:42:18.280Z,42.33
2019-01-14T11:44:59.139Z,41.83
2019-01-14T11:47:40.016Z,67.27
2019-01-14T11:50:21.318Z,70.50
2019-01-14T11:53:02.659Z,72.13
2019-01-14T11:55:43.960Z,70.63
2019-01-14T11:58:25.483Z,69.63
2019-01-14T12:01:06.312Z,69.00
2019-01-14T12:03:46.980Z,71.47
2019-01-14T12:06:28.610Z,70.97
2019-01-14T12:09:12.431Z,65.50
2019-01-14T12:11:52.033Z,78.57
2019-01-14T12:14:33.387Z,82.13
2019-01-14T12:17:14.134Z,86.93
2019-01-14T12:19:55.179Z,84.40
2019-01-14T12:22:36.635Z,80.40
2019-01-14T12:25:17.761Z,80.60
2019-01-14T12:27:59.161Z,85.93
2019-01-14T12:30:41.687Z,88.17
2019-01-14T12:33:22.994Z,68.53
2019-01-14T12:36:04.553Z,88.57
2019-01-14T12:38:45.471Z,83.00
2019-01-14T12:41:25.590Z,87.77
2019-01-14T12:44:14.128Z,88.13
2019-01-14T12:46:54.773Z,90.07
2019-01-14T12:49:36.177Z,94.93
2019-01-14T12:52:17.611Z,91.50
2019-01-14T12:54:57.940Z,77.80
2019-01-14T12:57:39.511Z,91.13
2019-01-14T13:00:20.957Z,91.10
2019-01-14T13:03:02.388Z,92.87
2019-01-14T13:05:42.896Z,93.87
2019-01-14T13:08:24.378Z,95.90
2019-01-14T13:11:05.250Z,95.90
2019-01-14T13:13:46.604Z,96.30
2019-01-14T13:16:28.116Z,92.77
2019-01-14T13:19:09.659Z,68.70
2019-01-14T13:21:51.196Z,91.60
2019-01-14T13:24:32.815Z,96.40
2019-01-14T13:27:13.437Z,91.03
2019-01-14T13:29:54.888Z,94.07
2019-01-14T13:32:36.557Z,92.10
2019-01-14T13:35:16.192Z,93.90
2019-01-14T13:38:04.630Z,93.03
2019-01-14T13:40:45.582Z,90.57
2019-01-14T13:43:26.798Z,94.33
2019-01-14T13:46:07.855Z,93.50
2019-01-14T13:48:48.048Z,90.90
2019-01-14T13:51:28.720Z,97.87
2019-01-14T13:54:10.246Z,97.37
2019-01-14T13:56:51.909Z,95.20
2019-01-14T13:59:33.188Z,72.13
2019-01-14T14:02:14.565Z,91.77
2019-01-14T14:04:56.004Z,96.23
2019-01-14T14:07:36.960Z,96.97
2019-01-14T14:10:18.467Z,92.63
2019-01-14T14:12:59.933Z,97.37
2019-01-14T14:15:41.137Z,53.63
2019-01-14T14:18:22.685Z,63.97
2019-01-14T14:21:04.089Z,90.43
2019-01-14T14:23:44.759Z,91.03
2019-01-14T14:26:24.360Z,89.33
2019-01-14T14:29:05.540Z,50.90
2019-01-14T14:31:45.056Z,77.00
2019-01-14T14:34:25.933Z,88.70
2019-01-14T14:37:07.321Z,87.93
2019-01-14T14:39:48.728Z,90.50
2019-01-14T14:42:30.007Z,91.30
2019-01-14T14:45:11.425Z,87.97
2019-01-14T14:47:52.593Z,43.10
2019-01-14T14:50:33.853Z,90.00
2019-01-14T14:53:14.468Z,87.90
2019-01-14T14:55:55.089Z,85.33
2019-01-14T14:58:34.873Z,85.70
2019-01-14T15:01:14.492Z,44.00
2019-01-14T15:04:03.091Z,86.07
2019-01-14T15:06:44.341Z,86.73
2019-01-14T15:09:31.419Z,82.67
2019-01-14T15:12:06.449Z,83.70
2019-01-14T15:14:47.129Z,44.13
2019-01-14T15:17:27.834Z,85.00
2019-01-14T15:20:08.765Z,87.63
2019-01-14T15:22:49.781Z,85.87
2019-01-14T15:25:30.977Z,86.03
2019-01-14T15:28:10.428Z,43.90
2019-01-14T15:33:59.181Z,86.77
2019-01-14T15:36:38.577Z,82.27
2019-01-14T15:39:20.112Z,83.43
2019-01-14T15:42:00.929Z,93.30
2019-01-14T15:44:41.748Z,84.63
2019-01-14T15:47:23.126Z,85.40
2019-01-14T15:50:04.525Z,86.87
2019-01-14T15:52:45.367Z,90.03
2019-01-14T15:55:26.941Z,93.50
2019-01-14T15:58:07.720Z,82.40
2019-01-14T16:00:48.490Z,93.53
2019-01-14T16:03:30.160Z,93.50
2019-01-14T16:06:11.499Z,90.43
2019-01-14T16:08:52.863Z,87.63
2019-01-14T16:11:34.161Z,89.10
2019-01-14T16:14:15.121Z,87.60
2019-01-14T16:16:56.982Z,88.90
2019-01-14T16:19:38.001Z,89.90
2019-01-14T20:58:46.488Z,101.17
2019-01-14T21:01:25.119Z,99.70
